Terminal Aerodrome Forecast
Issued by NWS

Home | Current Version | Previous Version | Text Only | Print | Product List | Glossary On
Versions: 1 2 3 4 5 6 7 8 9 10 11 12 13 14
883
FTUS46 KPDT 240522
TAFRDM
TAF
KRDM 240522Z 2406/2506 18005KT P6SM FEW080
     FM241800 15005KT P6SM SCT070 BKN120
     FM250300 VRB04KT P6SM BKN070 OVC090=

USA.gov is the U.S. government's official web portal to all federal, state and local government web resources and services.